Hanging Rock, Ohio
Current Conditions -  °F | °C
As of 11:35 AM on Saturday 25 Oct 2014 (Local Time) from KDWU Reporting Station
Broken Clouds Broken Clouds  
Wind Chill: 57°   Ceiling: 7000
Heat Index: 57°   Visibility: 10mi
Dew Point: 45°   Wind: 3mph
Humidity: 63%   Direction: 330°NNW
Pressure: 30.01"   Gusts: NA
Location:  38.545°N, 82.6629°W
Report Text: KDWU 251535Z AUTO 33003KT 10SM BKN070 BKN090 14/07 A3001 RMK AO1
Loading
Personal Weather Stations






























Interactive Weather Map
Tropical Storm Tracking
New forecast layout! Learn more

10-Day Weather Forecast

Advertisements
Track Severe Weather on mobile